Time,TemperatureF,DewpointF,PressureIn,WindDirection,WindDirectionDegrees,WindSpeedMPH,WindSpeedGustMPH,Humidity,HourlyPrecipIn,Conditions,Clouds,dailyrainin,SoftwareType,DateUTC
2013-04-29 00:07:00,39.7,36.2,29.62,North,0,0.0,1.6,87,0.00,,,0.00,WeatherCatV1.10B1784,2013-04-28 23:07:00,
2013-04-29 00:17:00,39.9,36.3,29.62,SW,225,0.0,3.4,87,0.00,,,0.00,WeatherCatV1.10B1784,2013-04-28 23:17:00,
2013-04-29 00:27:00,39.9,36.0,29.62,ESE,112,5.4,5.4,86,0.00,,,0.00,WeatherCatV1.10B1784,2013-04-28 23:27:00,
2013-04-29 00:37:00,39.9,35.7,29.62,East,90,1.6,2.0,85,0.00,,,0.00,WeatherCatV1.10B1784,2013-04-28 23:37:00,
2013-04-29 00:47:00,39.9,35.7,29.62,SW,225,5.8,5.8,85,0.00,,,0.00,WeatherCatV1.10B1784,2013-04-28 23:47:00,
2013-04-29 00:57:00,40.1,35.9,29.62,North,0,0.0,1.8,85,0.00,,,0.00,WeatherCatV1.10B1784,2013-04-28 23:57:00,
2013-04-29 01:07:00,39.9,35.7,29.62,West,270,0.0,5.1,85,0.02,,,0.02,WeatherCatV1.10B1784,2013-04-29 00:07:00,
2013-04-29 01:17:00,39.9,35.7,29.62,NW,315,0.0,3.4,85,0.02,,,0.02,WeatherCatV1.10B1784,2013-04-29 00:17:00,
2013-04-29 01:27:00,39.9,36.0,29.62,SE,135,7.6,7.6,86,0.02,,,0.02,WeatherCatV1.10B1784,2013-04-29 00:27:00,
2013-04-29 01:37:00,39.7,36.2,29.63,SSE,157,0.0,3.1,87,0.02,,,0.02,WeatherCatV1.10B1784,2013-04-29 00:37:00,
2013-04-29 01:47:00,39.6,36.3,29.63,ENE,67,2.5,6.9,88,0.02,,,0.02,WeatherCatV1.10B1784,2013-04-29 00:47:00,
2013-04-29 01:57:00,39.7,36.4,29.62,SSE,157,1.6,4.0,88,0.02,,,0.02,WeatherCatV1.10B1784,2013-04-29 00:57:00,
2013-04-29 02:07:00,39.9,36.6,29.62,South,180,5.4,5.4,88,0.00,,,0.02,WeatherCatV1.10B1784,2013-04-29 01:07:00,
2013-04-29 02:17:00,39.9,36.6,29.62,West,270,0.0,3.4,88,0.00,,,0.02,WeatherCatV1.10B1784,2013-04-29 01:17:00,
2013-04-29 02:27:00,40.3,36.7,29.62,SSE,157,5.6,5.6,87,0.00,,,0.02,WeatherCatV1.10B1784,2013-04-29 01:27:00,
2013-04-29 02:37:00,40.6,36.7,29.62,West,270,6.0,6.0,86,0.00,,,0.02,WeatherCatV1.10B1784,2013-04-29 01:37:00,
2013-04-29 02:47:00,40.6,36.7,29.62,North,0,1.6,2.5,86,0.00,,,0.02,WeatherCatV1.10B1784,2013-04-29 01:47:00,
2013-04-29 02:57:00,40.6,36.4,29.62,SE,135,3.6,3.8,85,0.00,,,0.02,WeatherCatV1.10B1784,2013-04-29 01:57:00,
2013-04-29 03:07:00,40.5,36.2,29.62,ENE,67,0.7,0.9,85,0.00,,,0.02,WeatherCatV1.10B1784,2013-04-29 02:07:00,
2013-04-29 03:17:00,40.3,36.1,29.63,SSW,202,0.0,2.0,85,0.00,,,0.02,WeatherCatV1.10B1784,2013-04-29 02:17:00,
2013-04-29 03:27:00,40.3,36.1,29.62,SSE,157,3.1,4.9,85,0.00,,,0.02,WeatherCatV1.10B1784,2013-04-29 02:27:00,
2013-04-29 03:37:00,40.3,36.1,29.62,ESE,112,1.3,2.7,85,0.00,,,0.02,WeatherCatV1.10B1784,2013-04-29 02:37:00,
2013-04-29 03:47:00,40.1,35.9,29.62,ESE,112,3.4,3.4,85,0.00,,,0.02,WeatherCatV1.10B1784,2013-04-29 02:47:00,
2013-04-29 03:57:00,40.3,36.4,29.62,SE,135,1.6,1.6,86,0.00,,,0.02,WeatherCatV1.10B1784,2013-04-29 02:57:00,
2013-04-29 04:07:00,40.3,36.4,29.62,ENE,67,2.9,4.5,86,0.00,,,0.02,WeatherCatV1.10B1784,2013-04-29 03:07:00,
2013-04-29 04:17:00,40.5,36.6,29.62,WSW,247,1.6,2.5,86,0.00,,,0.02,WeatherCatV1.10B1784,2013-04-29 03:17:00,
2013-04-29 04:27:00,40.5,36.6,29.62,SE,135,6.5,6.5,86,0.00,,,0.02,WeatherCatV1.10B1784,2013-04-29 03:27:00,
2013-04-29 04:37:00,40.5,36.6,29.62,East,90,6.3,6.3,86,0.00,,,0.02,WeatherCatV1.10B1784,2013-04-29 03:37:00,
2013-04-29 04:47:00,40.3,36.4,29.62,South,180,0.0,3.8,86,0.00,,,0.02,WeatherCatV1.10B1784,2013-04-29 03:47:00,
2013-04-29 04:57:00,40.6,36.7,29.62,West,270,3.6,4.5,86,0.00,,,0.02,WeatherCatV1.10B1784,2013-04-29 03:57:00,
2013-04-29 05:07:00,40.8,36.9,29.62,ESE,112,1.8,3.8,86,0.00,,,0.02,WeatherCatV1.10B1784,2013-04-29 04:07:00,
2013-04-29 05:17:00,40.8,36.6,29.63,SSE,157,0.0,5.4,86,0.00,,,0.02,WeatherCatV1.10B1784,2013-04-29 04:17:00,
2013-04-29 05:27:00,40.8,36.6,29.63,SE,135,6.3,6.3,85,0.00,,,0.02,WeatherCatV1.10B1784,2013-04-29 04:27:00,
2013-04-29 05:37:00,40.8,36.6,29.63,SW,225,0.0,2.5,85,0.00,,,0.02,WeatherCatV1.10B1784,2013-04-29 04:37:00,
2013-04-29 05:47:00,40.6,36.4,29.63,South,180,0.0,2.0,85,0.00,,,0.02,WeatherCatV1.10B1784,2013-04-29 04:47:00,
2013-04-29 05:57:00,40.3,36.6,29.64,NNE,22,0.0,2.7,86,0.00,,,0.02,WeatherCatV1.10B1784,2013-04-29 04:57:00,
2013-04-29 06:07:00,40.6,36.7,29.64,WNW,292,6.5,6.5,86,0.00,,,0.02,WeatherCatV1.10B1784,2013-04-29 05:07:00,
2013-04-29 06:17:00,40.8,36.9,29.64,South,180,5.8,5.8,86,0.00,,,0.02,WeatherCatV1.10B1784,2013-04-29 05:17:00,
2013-04-29 06:27:00,41.2,37.0,29.65,East,90,0.0,2.9,85,0.00,,,0.02,WeatherCatV1.10B1784,2013-04-29 05:27:00,
2013-04-29 06:37:00,41.5,37.3,29.65,SW,225,5.6,5.6,85,0.00,,,0.02,WeatherCatV1.10B1784,2013-04-29 05:37:00,
2013-04-29 06:47:00,41.7,37.0,29.65,South,180,1.3,3.8,84,0.00,,,0.02,WeatherCatV1.10B1784,2013-04-29 05:47:00,
2013-04-29 06:57:00,41.9,37.4,29.66,SE,135,0.0,5.6,84,0.00,,,0.02,WeatherCatV1.10B1784,2013-04-29 05:57:00,
2013-04-29 07:07:00,42.1,37.4,29.66,ESE,112,0.0,6.9,83,0.00,,,0.02,WeatherCatV1.10B1784,2013-04-29 06:07:00,
2013-04-29 07:17:00,42.6,37.8,29.66,ESE,112,1.6,3.1,83,0.00,,,0.02,WeatherCatV1.10B1784,2013-04-29 06:17:00,
2013-04-29 07:27:00,42.6,37.8,29.67,SSE,157,0.0,2.5,83,0.00,,,0.02,WeatherCatV1.10B1784,2013-04-29 06:27:00,
2013-04-29 07:37:00,43.0,37.8,29.67,South,180,2.0,2.7,82,0.00,,,0.02,WeatherCatV1.10B1784,2013-04-29 06:37:00,
2013-04-29 07:47:00,43.2,38.0,29.67,SW,225,0.7,9.2,82,0.00,,,0.02,WeatherCatV1.10B1784,2013-04-29 06:47:00,
2013-04-29 07:57:00,43.5,38.1,29.67,SE,135,0.0,6.7,81,0.00,,,0.02,WeatherCatV1.10B1784,2013-04-29 06:57:00,
2013-04-29 08:07:00,43.5,37.8,29.67,SSE,157,0.9,4.5,80,0.00,,,0.02,WeatherCatV1.10B1784,2013-04-29 07:07:00,
2013-04-29 08:17:00,43.3,37.9,29.67,SSW,202,2.5,5.8,82,0.00,,,0.02,WeatherCatV1.10B1784,2013-04-29 07:17:00,
2013-04-29 08:27:00,43.7,38.6,29.68,SSW,202,2.2,3.6,82,0.00,,,0.02,WeatherCatV1.10B1784,2013-04-29 07:27:00,
2013-04-29 08:37:00,44.1,38.6,29.68,South,180,2.2,5.4,81,0.00,,,0.02,WeatherCatV1.10B1784,2013-04-29 07:37:00,
2013-04-29 08:47:00,44.6,38.5,29.68,East,90,8.7,8.7,79,0.00,,,0.02,WeatherCatV1.10B1784,2013-04-29 07:47:00,
2013-04-29 08:57:00,45.1,38.7,29.69,ENE,67,1.1,4.5,78,0.00,,,0.02,WeatherCatV1.10B1784,2013-04-29 07:57:00,
2013-04-29 09:07:00,46.0,38.6,29.69,West,270,0.0,6.7,75,0.00,,,0.02,WeatherCatV1.10B1784,2013-04-29 08:07:00,
2013-04-29 09:17:00,46.2,38.1,29.70,WNW,292,0.0,3.8,73,0.00,,,0.02,WeatherCatV1.10B1784,2013-04-29 08:17:00,
2013-04-29 09:27:00,46.2,38.1,29.70,West,270,1.3,5.1,73,0.00,,,0.02,WeatherCatV1.10B1784,2013-04-29 08:27:00,
2013-04-29 09:37:00,46.6,38.2,29.71,ENE,67,1.6,5.4,73,0.00,,,0.02,WeatherCatV1.10B1784,2013-04-29 08:37:00,
2013-04-29 09:47:00,46.8,38.2,29.71,NE,45,0.0,2.2,72,0.00,,,0.02,WeatherCatV1.10B1784,2013-04-29 08:47:00,
2013-04-29 09:57:00,47.3,38.4,29.71,ENE,67,1.8,3.8,71,0.00,,,0.02,WeatherCatV1.10B1784,2013-04-29 08:57:00,
2013-04-29 10:07:00,47.8,38.1,29.72,ESE,112,2.9,5.8,69,0.00,,,0.02,WeatherCatV1.10B1784,2013-04-29 09:07:00,
2013-04-29 10:17:00,48.0,37.9,29.72,WNW,292,2.5,6.3,68,0.00,,,0.02,WeatherCatV1.10B1784,2013-04-29 09:17:00,
2013-04-29 10:27:00,48.4,38.2,29.73,East,90,0.9,8.9,68,0.00,,,0.02,WeatherCatV1.10B1784,2013-04-29 09:27:00,
2013-04-29 10:37:00,48.0,37.5,29.73,SE,135,1.3,6.0,67,0.00,,,0.02,WeatherCatV1.10B1784,2013-04-29 09:37:00,
2013-04-29 10:47:00,47.8,37.0,29.73,ENE,67,0.0,8.1,66,0.00,,,0.02,WeatherCatV1.10B1784,2013-04-29 09:47:00,
2013-04-29 10:57:00,48.7,37.8,29.74,SE,135,4.5,7.8,66,0.00,,,0.02,WeatherCatV1.10B1784,2013-04-29 09:57:00,
2013-04-29 11:07:00,48.9,38.0,29.75,NNE,22,1.8,2.5,66,0.00,,,0.02,WeatherCatV1.10B1784,2013-04-29 10:07:00,
2013-04-29 11:17:00,48.6,36.9,29.75,ESE,112,0.0,7.8,64,0.00,,,0.02,WeatherCatV1.10B1784,2013-04-29 10:17:00,
2013-04-29 11:27:00,48.2,36.2,29.75,NE,45,4.9,7.6,63,0.00,,,0.02,WeatherCatV1.10B1784,2013-04-29 10:27:00,
2013-04-29 11:37:00,48.7,35.9,29.75,NNW,337,14.3,14.3,61,0.00,,,0.02,WeatherCatV1.10B1784,2013-04-29 10:37:00,
2013-04-29 11:47:00,48.4,35.4,29.77,SSW,202,1.3,8.1,61,0.00,,,0.02,WeatherCatV1.10B1784,2013-04-29 10:47:00,
2013-04-29 11:57:00,46.8,36.4,29.77,SSE,157,2.2,2.2,67,0.00,,,0.02,WeatherCatV1.10B1784,2013-04-29 10:57:00,
2013-04-29 12:07:00,47.1,37.5,29.77,SE,135,0.0,3.8,69,0.00,,,0.02,WeatherCatV1.10B1784,2013-04-29 11:07:00,
2013-04-29 12:17:00,48.4,37.1,29.77,ENE,67,1.3,5.1,65,0.00,,,0.02,WeatherCatV1.10B1784,2013-04-29 11:17:00,
2013-04-29 12:27:00,48.0,37.5,29.78,NE,45,2.9,7.6,67,0.00,,,0.02,WeatherCatV1.10B1784,2013-04-29 11:27:00,
2013-04-29 12:37:00,48.0,37.5,29.77,WSW,247,2.2,7.4,67,0.00,,,0.02,WeatherCatV1.10B1784,2013-04-29 11:37:00,
2013-04-29 12:47:00,49.8,37.7,29.78,ESE,112,0.0,5.8,63,0.00,,,0.02,WeatherCatV1.10B1784,2013-04-29 11:47:00,
2013-04-29 12:57:00,49.8,37.7,29.78,NNE,22,0.0,4.0,63,0.00,,,0.02,WeatherCatV1.10B1784,2013-04-29 11:57:00,
2013-04-29 13:07:00,50.7,38.1,29.79,NW,315,10.7,10.7,62,0.00,,,0.02,WeatherCatV1.10B1784,2013-04-29 12:07:00,
2013-04-29 13:17:00,50.7,37.7,29.79,SSW,202,0.0,3.8,61,0.00,,,0.02,WeatherCatV1.10B1784,2013-04-29 12:17:00,
2013-04-29 13:27:00,50.9,35.7,29.80,West,270,8.7,8.7,56,0.00,,,0.02,WeatherCatV1.10B1784,2013-04-29 12:27:00,
2013-04-29 13:37:00,48.7,37.5,29.81,North,0,0.9,4.5,65,0.00,,,0.02,WeatherCatV1.10B1784,2013-04-29 12:37:00,
2013-04-29 13:47:00,47.7,36.2,29.81,North,0,2.5,6.3,64,0.00,,,0.02,WeatherCatV1.10B1784,2013-04-29 12:47:00,
2013-04-29 13:57:00,49.8,37.3,29.81,NNE,22,4.7,8.3,64,0.00,,,0.02,WeatherCatV1.10B1784,2013-04-29 12:57:00,
2013-04-29 14:07:00,51.1,37.7,29.82,ENE,67,4.7,7.4,60,0.00,,,0.02,WeatherCatV1.10B1784,2013-04-29 13:07:00,
2013-04-29 14:17:00,48.0,37.1,29.83,ESE,112,1.3,4.7,66,0.00,,,0.02,WeatherCatV1.10B1784,2013-04-29 13:17:00,
2013-04-29 14:27:00,48.2,38.1,29.82,NNE,22,2.7,4.2,68,0.00,,,0.02,WeatherCatV1.10B1784,2013-04-29 13:27:00,
2013-04-29 14:37:00,50.2,38.0,29.82,North,0,5.1,5.4,64,0.00,,,0.02,WeatherCatV1.10B1784,2013-04-29 13:37:00,
2013-04-29 14:47:00,52.0,37.6,29.82,NNE,22,6.0,6.0,58,0.00,,,0.02,WeatherCatV1.10B1784,2013-04-29 13:47:00,
2013-04-29 14:57:00,52.9,38.4,29.82,NNW,337,4.0,5.1,58,0.00,,,0.02,WeatherCatV1.10B1784,2013-04-29 13:57:00,
2013-04-29 15:07:00,52.7,38.3,29.83,ESE,112,4.9,7.6,58,0.00,,,0.02,WeatherCatV1.10B1784,2013-04-29 14:07:00,
2013-04-29 15:17:00,52.9,38.9,29.83,NE,45,0.0,5.8,59,0.00,,,0.02,WeatherCatV1.10B1784,2013-04-29 14:17:00,
2013-04-29 15:27:00,52.9,37.5,29.83,NNE,22,6.3,6.3,56,0.00,,,0.02,WeatherCatV1.10B1784,2013-04-29 14:27:00,
2013-04-29 15:37:00,53.6,36.2,29.83,ENE,67,2.2,8.3,52,0.00,,,0.02,WeatherCatV1.10B1784,2013-04-29 14:37:00,
2013-04-29 15:47:00,54.7,36.4,29.83,SE,135,1.8,6.9,49,0.00,,,0.02,WeatherCatV1.10B1784,2013-04-29 14:47:00,
2013-04-29 15:57:00,54.3,36.1,29.84,SSE,157,2.5,5.1,50,0.00,,,0.02,WeatherCatV1.10B1784,2013-04-29 14:57:00,
2013-04-29 16:07:00,52.7,36.6,29.86,SE,135,1.3,3.4,55,0.00,,,0.02,WeatherCatV1.10B1784,2013-04-29 15:07:00,
2013-04-29 16:17:00,51.4,38.4,29.86,NE,45,3.6,6.5,61,0.00,,,0.02,WeatherCatV1.10B1784,2013-04-29 15:17:00,
2013-04-29 16:27:00,51.6,37.7,29.86,NW,315,1.3,4.9,59,0.00,,,0.02,WeatherCatV1.10B1784,2013-04-29 15:27:00,
2013-04-29 16:37:00,52.3,38.4,29.86,West,270,0.7,8.5,59,0.00,,,0.02,WeatherCatV1.10B1784,2013-04-29 15:37:00,
2013-04-29 16:47:00,52.5,38.1,29.87,ESE,112,2.9,9.2,58,0.00,,,0.02,WeatherCatV1.10B1784,2013-04-29 15:47:00,
2013-04-29 16:57:00,52.9,38.0,29.86,NE,45,2.9,8.5,57,0.00,,,0.02,WeatherCatV1.10B1784,2013-04-29 15:57:00,
2013-04-29 17:07:00,53.2,36.2,29.86,WNW,292,2.2,7.6,52,0.00,,,0.02,WeatherCatV1.10B1784,2013-04-29 16:07:00,
2013-04-29 17:17:00,51.8,36.0,29.87,NNW,337,2.7,6.5,55,0.00,,,0.02,WeatherCatV1.10B1784,2013-04-29 16:17:00,
2013-04-29 17:27:00,50.4,36.6,29.87,ESE,112,2.7,2.7,59,0.00,,,0.02,WeatherCatV1.10B1784,2013-04-29 16:27:00,
2013-04-29 17:37:00,51.4,36.6,29.88,ENE,67,0.9,8.9,57,0.00,,,0.02,WeatherCatV1.10B1784,2013-04-29 16:37:00,
2013-04-29 17:47:00,52.0,36.7,29.88,North,0,3.1,3.1,56,0.00,,,0.02,WeatherCatV1.10B1784,2013-04-29 16:47:00,
2013-04-29 17:57:00,52.5,37.6,29.89,SE,135,4.0,4.0,57,0.00,,,0.02,WeatherCatV1.10B1784,2013-04-29 16:57:00,
2013-04-29 18:07:00,52.9,36.6,29.89,North,0,3.8,3.8,54,0.00,,,0.02,WeatherCatV1.10B1784,2013-04-29 17:07:00,
2013-04-29 18:17:00,51.3,35.6,29.90,SE,135,1.6,5.8,55,0.00,,,0.02,WeatherCatV1.10B1784,2013-04-29 17:17:00,
2013-04-29 18:27:00,49.3,35.0,29.90,WSW,247,2.2,6.7,57,0.00,,,0.02,WeatherCatV1.10B1784,2013-04-29 17:27:00,
2013-04-29 18:37:00,48.4,34.3,29.90,NE,45,3.1,8.3,58,0.00,,,0.02,WeatherCatV1.10B1784,2013-04-29 17:37:00,
2013-04-29 18:47:00,47.8,33.8,29.90,NNW,337,0.0,1.8,58,0.00,,,0.02,WeatherCatV1.10B1784,2013-04-29 17:47:00,
2013-04-29 18:57:00,47.8,34.2,29.91,ESE,112,3.8,7.6,59,0.00,,,0.02,WeatherCatV1.10B1784,2013-04-29 17:57:00,
2013-04-29 19:07:00,47.8,34.2,29.91,NE,45,1.6,4.9,59,0.00,,,0.02,WeatherCatV1.10B1784,2013-04-29 18:07:00,
2013-04-29 19:17:00,47.3,34.5,29.92,NE,45,3.8,7.4,61,0.00,,,0.02,WeatherCatV1.10B1784,2013-04-29 18:17:00,
2013-04-29 19:27:00,46.8,34.8,29.93,SSW,202,3.6,8.3,63,0.00,,,0.02,WeatherCatV1.10B1784,2013-04-29 18:27:00,
2013-04-29 19:37:00,46.2,34.7,29.93,ESE,112,1.3,1.8,64,0.00,,,0.02,WeatherCatV1.10B1784,2013-04-29 18:37:00,
2013-04-29 19:47:00,46.0,36.1,29.94,WNW,292,0.0,3.8,68,0.00,,,0.02,WeatherCatV1.10B1784,2013-04-29 18:47:00,
2013-04-29 19:57:00,44.8,35.2,29.95,South,180,0.9,3.6,69,0.00,,,0.02,WeatherCatV1.10B1784,2013-04-29 18:57:00,
2013-04-29 20:07:00,44.4,35.3,29.95,NNE,22,0.0,5.4,70,0.00,,,0.02,WeatherCatV1.10B1784,2013-04-29 19:07:00,
2013-04-29 20:17:00,43.9,35.1,29.96,SW,225,0.0,4.7,71,0.00,,,0.02,WeatherCatV1.10B1784,2013-04-29 19:17:00,
2013-04-29 20:27:00,43.7,35.3,29.97,SSE,157,1.3,2.9,72,0.00,,,0.02,WeatherCatV1.10B1784,2013-04-29 19:27:00,
2013-04-29 20:37:00,43.9,35.1,29.97,SSE,157,0.0,4.7,71,0.00,,,0.02,WeatherCatV1.10B1784,2013-04-29 19:37:00,
2013-04-29 20:47:00,43.7,34.9,29.98,ESE,112,0.0,4.9,71,0.00,,,0.02,WeatherCatV1.10B1784,2013-04-29 19:47:00,
2013-04-29 20:57:00,43.9,35.4,29.98,West,270,0.9,2.9,72,0.00,,,0.02,WeatherCatV1.10B1784,2013-04-29 19:57:00,
2013-04-29 21:07:00,43.7,35.3,29.98,SE,135,0.0,1.6,72,0.00,,,0.02,WeatherCatV1.10B1784,2013-04-29 20:07:00,
2013-04-29 21:17:00,43.9,35.4,29.99,ESE,112,0.0,0.0,72,0.00,,,0.02,WeatherCatV1.10B1784,2013-04-29 20:17:00,
2013-04-29 21:27:00,43.9,35.3,29.99,NW,315,0.9,0.9,72,0.00,,,0.02,WeatherCatV1.10B1784,2013-04-29 20:27:00,
2013-04-29 21:37:00,43.9,35.8,30.00,WSW,247,0.0,2.2,72,0.00,,,0.02,WeatherCatV1.10B1784,2013-04-29 20:37:00,
2013-04-29 21:47:00,43.5,35.9,30.00,SE,135,2.5,3.6,74,0.00,,,0.02,WeatherCatV1.10B1784,2013-04-29 20:47:00,
2013-04-29 21:57:00,43.5,35.8,30.00,SW,225,0.0,2.9,74,0.00,,,0.02,WeatherCatV1.10B1784,2013-04-29 20:57:00,
2013-04-29 22:07:00,43.3,35.9,30.01,SSE,157,0.0,5.1,75,0.00,,,0.02,WeatherCatV1.10B1784,2013-04-29 21:07:00,
2013-04-29 22:17:00,43.3,35.9,30.02,North,0,1.6,2.9,75,0.00,,,0.02,WeatherCatV1.10B1784,2013-04-29 21:17:00,
2013-04-29 22:27:00,43.2,36.1,30.02,SSW,202,0.0,3.1,76,0.00,,,0.02,WeatherCatV1.10B1784,2013-04-29 21:27:00,
2013-04-29 22:37:00,43.2,36.1,30.03,SSE,157,0.0,2.5,76,0.00,,,0.02,WeatherCatV1.10B1784,2013-04-29 21:37:00,
2013-04-29 22:47:00,43.0,35.9,30.03,SSW,202,0.0,2.7,76,0.00,,,0.02,WeatherCatV1.10B1784,2013-04-29 21:47:00,
2013-04-29 22:57:00,42.6,35.9,30.04,ENE,67,0.0,1.3,77,0.00,,,0.02,WeatherCatV1.10B1784,2013-04-29 21:57:00,
2013-04-29 23:07:00,42.4,36.0,30.04,SSE,157,0.9,1.6,78,0.00,,,0.02,WeatherCatV1.10B1784,2013-04-29 22:07:00,
2013-04-29 23:17:00,42.1,35.7,30.05,SW,225,0.0,1.3,78,0.00,,,0.02,WeatherCatV1.10B1784,2013-04-29 22:17:00,
2013-04-29 23:27:00,41.7,35.6,30.06,West,270,0.0,1.8,79,0.00,,,0.02,WeatherCatV1.10B1784,2013-04-29 22:27:00,
2013-04-29 23:37:00,41.5,35.5,30.06,East,90,0.0,0.0,79,0.00,,,0.02,WeatherCatV1.10B1784,2013-04-29 22:37:00,
2013-04-29 23:47:00,41.4,35.6,30.07,SSE,157,0.0,2.5,80,0.00,,,0.02,WeatherCatV1.10B1784,2013-04-29 22:47:00,
2013-04-29 23:57:00,41.4,35.6,30.07,SSE,157,0.0,0.0,80,0.00,,,0.02,WeatherCatV1.10B1784,2013-04-29 22:57:00,